Accueil
METAR-TAF:

METAR-TAF

Aéroports :

Aéroport de Nouadhibou

Nouadhibou, Mauritanie

latitude: 20-56N, longitude: 017-02W, altitude: 5 m

Observation

Le bulletin a été fait il y a 41 minutes, à 09:00 UTC
Vent 26 kt de nord-est
Température 18°C
Humidité 45%
Pression 1021 hPa
Visibilité: 6000 m
Chasse-sable basse,

METAR: GQPP 030900Z 04026KT 6000 DRSA NSC 18/06 Q1021 NOSIG

Heure: 09:41 (09:41 UTC)

Prévision

Le bulletin a été fait il y a 4 heures et 41 minutes, à 05:00 UTC
Prévision valable du 03 à 06 UTC au 04 à 06 UTC
Vent 18 kt de nord-est avec des rafales jusqu'à 40 kt
Visibilité: 6000 m
Probabilité 40% :
Temporairement
du 03 à 10 UTC au 03 à 18 UTC
Visibilité: 3000 m
Chasse-sable basse,

TAF: GQPP 030500Z 0306/0406 04018G40KT 6000 NSC PROB40 TEMPO 0310/0318 3000 DRSA

Observations et prévisions météorologiques de plus de 4000 aéroports (messages METAR et TAF).

Les stations disponibles sont représentées par des disques jaunes et rouges sur la carte.

Passer la souris dessus pour voir le nom de la station.

Cliquer dessus pour voir les observations et prévisions météorologiques.

Pour changer de carte: cliquez sur les boutons verts avec une croix noire pour zoomer, sur le bouton vert avec un tiret pour effectuer un zoom arrière, ou sur les flèches vertes pour les cartes adjacentes.


METAR-TAF: